Terminal Aerodrome Forecast
Issued by NWS

Home | Current Version | Previous Version | Text Only | Print | Product List | Glossary On
Versions: 1 2 3 4 5 6 7 8 9 10 11 12 13 14 15 16 17
000
FTUS43 KBIS 282335
TAFDIK
TAF
KDIK 282335Z 2900/2924 35005KT P6SM SCT090
     FM290300 10006KT P6SM SCT090
     FM291200 17008KT P6SM OVC090
     FM291500 19009KT P6SM -SHRA BKN080
     FM292200 23006KT P6SM BKN080=

USA.gov is the U.S. government's official web portal to all federal, state and local government web resources and services.